Terminal Aerodrome Forecast
Issued by NWS Charleston, WV

Home | Current Version | Previous Version | Text Only | Print | Product List | Glossary On
Versions: 1 2 3 4 5 6 7 8 9 10 11 12 13 14 15 16 17 18 19 20 21 22
000
FTUS41 KRLX 270928 AAA
TAFPKB
TAF AMD
KPKB 270928Z 2709/2806 00000KT P6SM BKN100
     FM271100 20003KT 5SM BR BKN100
     FM271300 22005KT P6SM BKN080
     FM271700 23008G16KT P6SM SCT080
     FM280000 24004KT P6SM SCT080=

USA.gov is the U.S. government's official web portal to all federal, state and local government web resources and services.